createdAt,value
2023-01-18T00:10:19.277Z,894.43792
2023-01-18T00:25:21.512Z,963.89696
2023-01-18T00:40:23.776Z,1048.92563
2023-01-18T00:55:26.165Z,1075.22847
2023-01-18T01:10:28.380Z,1089.29996
2023-01-18T01:25:30.591Z,1095.20174
2023-01-18T01:40:32.972Z,1117.69403
2023-01-18T01:55:35.227Z,1055.97065
2023-01-18T02:10:37.454Z,932.76253
2023-01-18T02:25:39.713Z,839.76311
2023-01-18T02:40:42.005Z,809.49706
2023-01-18T02:55:44.267Z,757.49514
2023-01-18T03:10:46.624Z,706.79371
2023-01-18T03:25:48.864Z,688.88277
2023-01-18T03:40:51.116Z,816.03279
2023-01-18T03:55:53.350Z,853.95342
2023-01-18T04:10:55.569Z,909.38353
2023-01-18T04:25:57.857Z,820.76616
2023-01-18T04:41:00.175Z,768.18725
2023-01-18T04:56:02.456Z,821.24252
2023-01-18T05:11:04.726Z,781.76845
2023-01-18T05:26:07.002Z,801.24625
2023-01-18T05:41:09.292Z,780.0446
2023-01-18T05:56:11.541Z,806.2683
2023-01-18T06:11:13.753Z,861.22996
2023-01-18T06:26:16.033Z,964.55401
2023-01-18T06:41:18.284Z,995.77812
2023-01-18T06:56:20.846Z,1103.74465
2023-01-18T07:11:23.154Z,1136.54669
2023-01-18T07:26:25.376Z,1179.16717
2023-01-18T07:41:30.052Z,1172.32859
2023-01-18T07:56:32.530Z,1128.38966
2023-01-18T08:11:34.800Z,1032.09386
2023-01-18T08:26:37.065Z,1020.18796
2023-01-18T08:41:39.554Z,990.20344
2023-01-18T08:56:41.972Z,1029.84038
2023-01-18T09:11:44.316Z,1185.09263
2023-01-18T09:26:46.580Z,1318.73303
2023-01-18T09:41:48.811Z,1329.88773
2023-01-18T09:56:51.223Z,1214.59278
2023-01-18T10:11:53.582Z,1226.17035
2023-01-18T10:26:55.893Z,1220.88057
2023-01-18T10:41:58.116Z,1120.34888
2023-01-18T10:57:00.425Z,1133.81461
2023-01-18T11:12:02.768Z,1102.02542
2023-01-18T11:27:05.013Z,1123.01638
2023-01-18T11:42:07.216Z,1084.29169
2023-01-18T11:57:09.450Z,1090.97968
2023-01-18T12:12:19.019Z,1035.87166
2023-01-18T12:27:22.309Z,998.58907
2023-01-18T12:42:24.549Z,992.28661
2023-01-18T12:57:26.784Z,1000.0005
2023-01-18T13:12:29.046Z,981.27651
2023-01-18T13:27:31.333Z,1007.83526
2023-01-18T13:42:33.839Z,960.62507
2023-01-18T13:57:36.233Z,918.23541
2023-01-18T14:12:38.456Z,878.88249
2023-01-18T14:27:40.753Z,833.33383
2023-01-18T14:42:43.750Z,822.67492
2023-01-18T14:57:46.085Z,792.27373
2023-01-18T15:12:48.254Z,778.32833
2023-01-18T15:27:50.619Z,771.11766
2023-01-18T15:42:52.968Z,721.95475
2023-01-18T15:57:55.215Z,700.48931
2023-01-18T16:12:57.535Z,711.06007
2023-01-18T16:28:00.054Z,707.50121
2023-01-18T16:43:02.409Z,699.79576
2023-01-18T16:58:04.939Z,692.25634
2023-01-18T17:13:07.463Z,700.48931
2023-01-18T17:28:09.705Z,713.21262
2023-01-18T17:43:13.613Z,709.63224
2023-01-18T17:58:16.060Z,712.49366
2023-01-18T18:13:18.574Z,693.61503
2023-01-18T18:28:20.786Z,705.38295
2023-01-18T18:43:23.066Z,706.79371
2023-01-18T18:58:25.287Z,720.48288
2023-01-18T19:13:27.553Z,769.85904
2023-01-18T19:28:29.830Z,820.76616
2023-01-18T19:43:32.085Z,898.98398
2023-01-18T19:58:34.383Z,997.88484
2023-01-18T20:13:36.571Z,1024.62034
2023-01-18T20:28:38.904Z,1051.2635
2023-01-18T20:43:41.338Z,1122.1258
2023-01-18T20:58:43.593Z,1189.07614
2023-01-18T21:13:45.851Z,1176.22661
2023-01-18T21:28:48.095Z,1267.92165
2023-01-18T21:43:50.329Z,1394.08918
2023-01-18T21:58:52.560Z,1394.08918
2023-01-18T22:13:54.875Z,1635.83864
2023-01-18T22:28:57.273Z,1546.44858
2023-01-18T22:43:59.527Z,1463.28904
2023-01-18T22:59:01.792Z,1670.60262
2023-01-18T23:14:03.976Z,1969.38115
2023-01-18T23:29:06.229Z,1958.47801
2023-01-18T23:44:08.657Z,1850.88343
2023-01-18T23:59:10.872Z,1898.05549
